sensor_id;sensor_type;location;lat;lon;timestamp;pressure;altitude;pressure_sealevel;temperature;humidity
6837;BME280;3456;42.136;24.736;2023-01-28T00:01:54;63585.63;;;3.60;100.00
6837;BME280;3456;42.136;24.736;2023-01-28T00:04:26;63606.31;;;3.84;100.00
6837;BME280;3456;42.136;24.736;2023-01-28T00:06:55;63486.47;;;2.65;100.00
6837;BME280;3456;42.136;24.736;2023-01-28T00:09:23;63603.75;;;3.77;100.00
6837;BME280;3456;42.136;24.736;2023-01-28T00:11:52;63632.72;;;3.80;100.00
6837;BME280;3456;42.136;24.736;2023-01-28T00:14:21;63618.78;;;3.86;100.00
6837;BME280;3456;42.136;24.736;2023-01-28T00:16:49;63575.50;;;3.98;100.00
6837;BME280;3456;42.136;24.736;2023-01-28T00:19:18;63580.44;;;4.02;100.00
6837;BME280;3456;42.136;24.736;2023-01-28T00:21:50;63592.94;;;3.76;100.00
6837;BME280;3456;42.136;24.736;2023-01-28T00:24:21;63624.81;;;3.91;100.00
6837;BME280;3456;42.136;24.736;2023-01-28T00:26:51;63598.63;;;3.77;100.00
6837;BME280;3456;42.136;24.736;2023-01-28T00:29:20;63647.00;;;3.93;100.00
6837;BME280;3456;42.136;24.736;2023-01-28T00:31:49;63620.25;;;3.78;100.00
6837;BME280;3456;42.136;24.736;2023-01-28T00:34:17;63619.16;;;3.77;100.00
6837;BME280;3456;42.136;24.736;2023-01-28T00:36:46;63647.97;;;3.70;100.00
6837;BME280;3456;42.136;24.736;2023-01-28T00:39:25;63652.91;;;3.75;100.00
6837;BME280;3456;42.136;24.736;2023-01-28T00:41:54;63625.38;;;3.92;100.00
6837;BME280;3456;42.136;24.736;2023-01-28T00:44:23;63629.03;;;4.00;100.00
6837;BME280;3456;42.136;24.736;2023-01-28T00:46:52;63645.56;;;3.94;100.00
6837;BME280;3456;42.136;24.736;2023-01-28T00:49:21;63659.88;;;3.86;100.00
6837;BME280;3456;42.136;24.736;2023-01-28T00:51:51;63653.63;;;3.85;100.00
6837;BME280;3456;42.136;24.736;2023-01-28T00:54:20;63648.13;;;3.94;100.00
6837;BME280;3456;42.136;24.736;2023-01-28T00:56:51;63630.19;;;3.73;100.00
6837;BME280;3456;42.136;24.736;2023-01-28T00:59:20;63657.31;;;3.72;100.00
6837;BME280;3456;42.136;24.736;2023-01-28T01:01:49;63624.66;;;3.82;100.00
6837;BME280;3456;42.136;24.736;2023-01-28T01:04:18;63668.66;;;3.80;100.00
6837;BME280;3456;42.136;24.736;2023-01-28T01:06:52;63667.94;;;3.84;100.00
6837;BME280;3456;42.136;24.736;2023-01-28T01:09:21;63638.25;;;3.71;100.00
6837;BME280;3456;42.136;24.736;2023-01-28T01:11:55;63666.47;;;3.85;100.00
6837;BME280;3456;42.136;24.736;2023-01-28T01:14:24;63637.13;;;3.91;100.00
6837;BME280;3456;42.136;24.736;2023-01-28T01:16:53;63672.34;;;3.88;100.00
6837;BME280;3456;42.136;24.736;2023-01-28T01:19:21;63627.22;;;3.82;100.00
6837;BME280;3456;42.136;24.736;2023-01-28T01:21:51;63663.56;;;3.66;100.00
6837;BME280;3456;42.136;24.736;2023-01-28T01:24:20;63660.97;;;3.66;100.00
6837;BME280;3456;42.136;24.736;2023-01-28T01:26:48;63556.38;;;3.10;100.00
6837;BME280;3456;42.136;24.736;2023-01-28T01:29:20;63675.63;;;3.77;100.00
6837;BME280;3456;42.136;24.736;2023-01-28T01:31:49;63649.22;;;3.81;100.00
6837;BME280;3456;42.136;24.736;2023-01-28T01:34:17;63649.97;;;3.91;100.00
6837;BME280;3456;42.136;24.736;2023-01-28T01:36:46;63662.81;;;3.91;100.00
6837;BME280;3456;42.136;24.736;2023-01-28T01:39:15;63646.28;;;3.97;100.00
6837;BME280;3456;42.136;24.736;2023-01-28T01:41:52;63656.00;;;3.96;100.00
6837;BME280;3456;42.136;24.736;2023-01-28T01:44:55;63710.63;;;3.57;100.00
6837;BME280;3456;42.136;24.736;2023-01-28T01:47:27;63813.09;;;3.62;100.00
6837;BME280;3456;42.136;24.736;2023-01-28T01:50:00;63730.81;;;3.66;100.00
6837;BME280;3456;42.136;24.736;2023-01-28T01:52:34;63713.03;;;3.62;100.00
6837;BME280;3456;42.136;24.736;2023-01-28T01:55:08;63716.34;;;3.86;100.00
6837;BME280;3456;42.136;24.736;2023-01-28T01:57:40;63713.78;;;3.79;100.00
6837;BME280;3456;42.136;24.736;2023-01-28T02:00:13;63667.75;;;3.32;100.00
6837;BME280;3456;42.136;24.736;2023-01-28T02:02:45;63748.41;;;3.75;100.00
6837;BME280;3456;42.136;24.736;2023-01-28T02:07:52;63731.75;;;3.86;100.00
6837;BME280;3456;42.136;24.736;2023-01-28T02:10:59;63832.94;;;3.80;100.00
6837;BME280;3456;42.136;24.736;2023-01-28T02:13:37;63864.09;;;3.71;100.00
6837;BME280;3456;42.136;24.736;2023-01-28T02:16:10;63770.63;;;3.91;100.00
6837;BME280;3456;42.136;24.736;2023-01-28T02:18:39;63849.44;;;3.81;100.00
6837;BME280;3456;42.136;24.736;2023-01-28T02:21:44;63767.13;;;3.85;100.00
6837;BME280;3456;42.136;24.736;2023-01-28T02:24:29;63854.59;;;3.81;100.00
6837;BME280;3456;42.136;24.736;2023-01-28T02:27:20;63837.34;;;3.84;100.00
6837;BME280;3456;42.136;24.736;2023-01-28T02:29:58;63846.88;;;3.74;100.00
6837;BME280;3456;42.136;24.736;2023-01-28T02:32:35;63843.97;;;3.83;100.00
6837;BME280;3456;42.136;24.736;2023-01-28T02:35:11;63861.84;;;3.55;100.00
6837;BME280;3456;42.136;24.736;2023-01-28T02:37:45;63856.78;;;3.69;100.00
6837;BME280;3456;42.136;24.736;2023-01-28T02:40:19;63858.19;;;3.61;100.00
6837;BME280;3456;42.136;24.736;2023-01-28T02:42:51;63904.34;;;3.47;100.00
6837;BME280;3456;42.136;24.736;2023-01-28T02:45:25;63868.88;;;3.80;100.00
6837;BME280;3456;42.136;24.736;2023-01-28T02:48:15;63905.16;;;3.71;100.00
6837;BME280;3456;42.136;24.736;2023-01-28T02:50:47;63967.16;;;3.76;100.00
6837;BME280;3456;42.136;24.736;2023-01-28T02:53:23;63944.09;;;3.83;100.00
6837;BME280;3456;42.136;24.736;2023-01-28T02:56:16;63938.56;;;3.78;100.00
6837;BME280;3456;42.136;24.736;2023-01-28T02:58:51;63951.25;;;3.89;100.00
6837;BME280;3456;42.136;24.736;2023-01-28T03:01:32;63949.66;;;4.02;100.00
6837;BME280;3456;42.136;24.736;2023-01-28T03:04:08;63959.13;;;3.13;100.00
6837;BME280;3456;42.136;24.736;2023-01-28T03:06:43;63993.75;;;3.74;100.00
6837;BME280;3456;42.136;24.736;2023-01-28T03:09:13;64017.28;;;3.54;100.00
6837;BME280;3456;42.136;24.736;2023-01-28T03:11:54;64051.66;;;3.73;100.00
6837;BME280;3456;42.136;24.736;2023-01-28T03:14:38;63977.09;;;3.85;100.00
6837;BME280;3456;42.136;24.736;2023-01-28T03:17:25;63976.34;;;3.82;100.00
6837;BME280;3456;42.136;24.736;2023-01-28T03:20:09;63946.97;;;3.74;100.00
6837;BME280;3456;42.136;24.736;2023-01-28T03:22:53;64001.72;;;3.98;100.00
6837;BME280;3456;42.136;24.736;2023-01-28T03:25:37;63993.69;;;4.07;100.00
6837;BME280;3456;42.136;24.736;2023-01-28T03:28:21;64034.38;;;3.95;100.00
6837;BME280;3456;42.136;24.736;2023-01-28T03:31:05;64020.47;;;4.08;100.00
6837;BME280;3456;42.136;24.736;2023-01-28T03:33:50;64177.72;;;3.83;100.00
6837;BME280;3456;42.136;24.736;2023-01-28T03:36:32;64220.88;;;3.71;100.00
6837;BME280;3456;42.136;24.736;2023-01-28T03:39:23;64232.63;;;3.70;100.00
6837;BME280;3456;42.136;24.736;2023-01-28T03:41:58;64192.75;;;3.85;100.00
6837;BME280;3456;42.136;24.736;2023-01-28T03:44:30;64162.06;;;2.92;100.00
6837;BME280;3456;42.136;24.736;2023-01-28T03:47:11;64202.50;;;3.66;100.00
6837;BME280;3456;42.136;24.736;2023-01-28T03:49:44;64263.81;;;3.75;100.00
6837;BME280;3456;42.136;24.736;2023-01-28T03:52:14;64293.53;;;3.55;100.00
6837;BME280;3456;42.136;24.736;2023-01-28T03:54:44;64279.44;;;3.59;100.00
6837;BME280;3456;42.136;24.736;2023-01-28T03:57:14;64286.53;;;3.03;100.00
6837;BME280;3456;42.136;24.736;2023-01-28T03:59:43;64277.06;;;3.43;100.00
6837;BME280;3456;42.136;24.736;2023-01-28T04:02:15;64288.25;;;3.60;100.00
6837;BME280;3456;42.136;24.736;2023-01-28T04:04:47;64272.00;;;2.83;100.00
6837;BME280;3456;42.136;24.736;2023-01-28T04:07:17;64322.53;;;3.58;100.00
6837;BME280;3456;42.136;24.736;2023-01-28T04:09:45;64340.50;;;3.58;100.00
6837;BME280;3456;42.136;24.736;2023-01-28T04:12:14;64350.13;;;3.51;100.00
6837;BME280;3456;42.136;24.736;2023-01-28T04:14:43;64298.53;;;3.60;100.00
6837;BME280;3456;42.136;24.736;2023-01-28T04:17:11;64345.63;;;3.58;100.00
6837;BME280;3456;42.136;24.736;2023-01-28T04:19:40;64323.81;;;3.62;100.00
6837;BME280;3456;42.136;24.736;2023-01-28T04:22:11;64366.63;;;3.52;100.00
6837;BME280;3456;42.136;24.736;2023-01-28T04:24:40;64363.72;;;3.54;100.00
6837;BME280;3456;42.136;24.736;2023-01-28T04:27:09;64435.75;;;3.26;100.00
6837;BME280;3456;42.136;24.736;2023-01-28T04:29:37;64485.38;;;3.36;100.00
6837;BME280;3456;42.136;24.736;2023-01-28T04:32:06;64496.19;;;3.37;100.00
6837;BME280;3456;42.136;24.736;2023-01-28T04:34:35;64475.44;;;3.34;100.00
6837;BME280;3456;42.136;24.736;2023-01-28T04:37:04;64501.66;;;3.35;100.00
6837;BME280;3456;42.136;24.736;2023-01-28T04:39:35;64519.09;;;3.23;100.00
6837;BME280;3456;42.136;24.736;2023-01-28T04:42:04;64548.75;;;3.22;100.00
6837;BME280;3456;42.136;24.736;2023-01-28T04:44:32;64531.13;;;3.20;100.00
6837;BME280;3456;42.136;24.736;2023-01-28T04:47:01;64491.59;;;3.49;100.00
6837;BME280;3456;42.136;24.736;2023-01-28T04:49:30;64509.69;;;3.44;100.00
6837;BME280;3456;42.136;24.736;2023-01-28T04:51:59;64543.16;;;3.40;100.00
6837;BME280;3456;42.136;24.736;2023-01-28T04:54:27;64523.97;;;3.32;100.00
6837;BME280;3456;42.136;24.736;2023-01-28T04:56:59;64552.31;;;3.39;100.00
6837;BME280;3456;42.136;24.736;2023-01-28T04:59:27;64540.81;;;3.31;100.00
6837;BME280;3456;42.136;24.736;2023-01-28T05:01:56;64583.66;;;3.28;100.00
6837;BME280;3456;42.136;24.736;2023-01-28T05:04:25;64588.00;;;3.25;100.00
6837;BME280;3456;42.136;24.736;2023-01-28T05:06:53;64594.69;;;3.31;100.00
6837;BME280;3456;42.136;24.736;2023-01-28T05:09:23;64536.59;;;3.06;100.00
6837;BME280;3456;42.136;24.736;2023-01-28T05:11:52;64597.81;;;3.31;100.00
6837;BME280;3456;42.136;24.736;2023-01-28T05:14:23;64594.59;;;3.24;100.00
6837;BME280;3456;42.136;24.736;2023-01-28T05:16:52;64572.59;;;3.25;100.00
6837;BME280;3456;42.136;24.736;2023-01-28T05:19:20;64583.75;;;3.35;100.00
6837;BME280;3456;42.136;24.736;2023-01-28T05:21:49;64576.72;;;3.31;100.00
6837;BME280;3456;42.136;24.736;2023-01-28T05:24:18;64530.78;;;3.22;100.00
6837;BME280;3456;42.136;24.736;2023-01-28T05:26:46;64580.31;;;3.48;100.00
6837;BME280;3456;42.136;24.736;2023-01-28T05:29:15;64542.50;;;3.21;100.00
6837;BME280;3456;42.136;24.736;2023-01-28T05:31:47;64584.66;;;3.45;100.00
6837;BME280;3456;42.136;24.736;2023-01-28T05:34:16;64533.88;;;3.57;100.00
6837;BME280;3456;42.136;24.736;2023-01-28T05:36:44;64564.00;;;3.49;100.00
6837;BME280;3456;42.136;24.736;2023-01-28T05:39:13;64566.88;;;3.59;100.00
6837;BME280;3456;42.136;24.736;2023-01-28T05:41:42;64513.34;;;3.45;100.00
6837;BME280;3456;42.136;24.736;2023-01-28T05:44:11;64577.84;;;3.20;100.00
6837;BME280;3456;42.136;24.736;2023-01-28T05:46:39;64600.72;;;3.41;100.00
6837;BME280;3456;42.136;24.736;2023-01-28T05:49:13;64559.31;;;3.54;100.00
6837;BME280;3456;42.136;24.736;2023-01-28T05:51:42;64511.44;;;3.53;100.00
6837;BME280;3456;42.136;24.736;2023-01-28T05:54:13;64569.03;;;3.54;100.00
6837;BME280;3456;42.136;24.736;2023-01-28T05:56:42;64559.88;;;3.55;100.00
6837;BME280;3456;42.136;24.736;2023-01-28T05:59:15;64524.53;;;3.21;100.00
6837;BME280;3456;42.136;24.736;2023-01-28T06:02:18;64525.84;;;3.47;100.00
6837;BME280;3456;42.136;24.736;2023-01-28T06:08:26;64471.41;;;3.47;100.00
6837;BME280;3456;42.136;24.736;2023-01-28T06:10:56;64473.81;;;3.63;100.00
6837;BME280;3456;42.136;24.736;2023-01-28T06:13:25;64401.44;;;3.51;100.00
6837;BME280;3456;42.136;24.736;2023-01-28T06:15:54;64512.78;;;3.56;100.00
6837;BME280;3456;42.136;24.736;2023-01-28T06:18:22;64552.31;;;3.39;100.00
6837;BME280;3456;42.136;24.736;2023-01-28T06:20:54;64496.03;;;3.53;100.00
6837;BME280;3456;42.136;24.736;2023-01-28T06:23:22;64486.41;;;3.72;100.00
6837;BME280;3456;42.136;24.736;2023-01-28T06:25:53;64552.38;;;3.57;100.00
6837;BME280;3456;42.136;24.736;2023-01-28T06:28:22;64552.50;;;3.53;100.00
6837;BME280;3456;42.136;24.736;2023-01-28T06:30:52;64507.19;;;3.63;100.00
6837;BME280;3456;42.136;24.736;2023-01-28T06:33:21;64552.75;;;3.55;100.00
6837;BME280;3456;42.136;24.736;2023-01-28T06:35:50;64475.91;;;3.69;100.00
6837;BME280;3456;42.136;24.736;2023-01-28T06:38:21;64479.38;;;3.68;100.00
6837;BME280;3456;42.136;24.736;2023-01-28T06:40:50;64367.06;;;3.75;100.00
6837;BME280;3456;42.136;24.736;2023-01-28T06:43:20;64392.59;;;3.80;100.00
6837;BME280;3456;42.136;24.736;2023-01-28T06:45:52;64371.22;;;3.70;100.00
6837;BME280;3456;42.136;24.736;2023-01-28T06:48:21;64403.13;;;3.71;100.00
6837;BME280;3456;42.136;24.736;2023-01-28T06:50:50;64347.03;;;3.69;100.00
6837;BME280;3456;42.136;24.736;2023-01-28T06:53:21;64324.34;;;3.92;100.00
6837;BME280;3456;42.136;24.736;2023-01-28T06:55:50;64317.25;;;4.00;100.00
6837;BME280;3456;42.136;24.736;2023-01-28T06:58:19;64258.28;;;3.70;100.00
6837;BME280;3456;42.136;24.736;2023-01-28T07:00:47;64323.91;;;4.06;100.00
6837;BME280;3456;42.136;24.736;2023-01-28T07:03:16;64278.09;;;4.11;100.00
6837;BME280;3456;42.136;24.736;2023-01-28T07:05:45;64289.69;;;4.15;100.00
6837;BME280;3456;42.136;24.736;2023-01-28T07:08:14;64292.09;;;4.19;100.00
6837;BME280;3456;42.136;24.736;2023-01-28T07:10:45;64291.63;;;3.88;100.00
6837;BME280;3456;42.136;24.736;2023-01-28T07:13:14;64289.34;;;3.98;100.00
6837;BME280;3456;42.136;24.736;2023-01-28T07:15:43;64346.94;;;3.99;100.00
6837;BME280;3456;42.136;24.736;2023-01-28T07:18:11;64329.34;;;3.97;100.00
6837;BME280;3456;42.136;24.736;2023-01-28T07:20:41;64272.78;;;3.71;100.00
6837;BME280;3456;42.136;24.736;2023-01-28T07:23:10;64318.38;;;4.01;100.00
6837;BME280;3456;42.136;24.736;2023-01-28T07:25:39;64252.09;;;4.20;100.00
6837;BME280;3456;42.136;24.736;2023-01-28T07:28:11;64182.09;;;3.80;100.00
6837;BME280;3456;42.136;24.736;2023-01-28T07:30:46;64254.44;;;4.36;100.00
6837;BME280;3456;42.136;24.736;2023-01-28T07:33:15;64325.28;;;4.35;100.00
6837;BME280;3456;42.136;24.736;2023-01-28T07:35:44;64306.56;;;4.14;100.00
6837;BME280;3456;42.136;24.736;2023-01-28T07:38:14;64330.00;;;3.93;100.00
6837;BME280;3456;42.136;24.736;2023-01-28T07:40:43;64305.81;;;4.36;100.00
6837;BME280;3456;42.136;24.736;2023-01-28T07:43:15;64154.19;;;4.62;100.00
6837;BME280;3456;42.136;24.736;2023-01-28T07:45:43;64344.16;;;4.52;100.00
6837;BME280;3456;42.136;24.736;2023-01-28T07:48:12;64269.22;;;4.73;100.00
6837;BME280;3456;42.136;24.736;2023-01-28T07:50:41;64216.38;;;4.81;100.00
6837;BME280;3456;42.136;24.736;2023-01-28T07:53:13;64184.50;;;4.94;100.00
6837;BME280;3456;42.136;24.736;2023-01-28T07:55:42;64197.44;;;4.82;100.00
6837;BME280;3456;42.136;24.736;2023-01-28T07:58:11;64068.47;;;4.70;100.00
6837;BME280;3456;42.136;24.736;2023-01-28T08:00:42;64127.38;;;5.54;100.00
6837;BME280;3456;42.136;24.736;2023-01-28T08:03:12;64077.25;;;5.99;100.00
6837;BME280;3456;42.136;24.736;2023-01-28T08:05:43;64121.09;;;6.35;100.00
6837;BME280;3456;42.136;24.736;2023-01-28T08:08:13;64459.22;;;6.40;100.00
6837;BME280;3456;42.136;24.736;2023-01-28T08:10:42;64913.28;;;6.19;100.00
6837;BME280;3456;42.136;24.736;2023-01-28T08:13:12;64980.22;;;6.12;100.00
6837;BME280;3456;42.136;24.736;2023-01-28T08:15:45;64959.41;;;6.63;100.00
6837;BME280;3456;42.136;24.736;2023-01-28T08:18:15;65035.63;;;6.96;100.00
6837;BME280;3456;42.136;24.736;2023-01-28T08:20:44;65338.75;;;7.48;100.00
6837;BME280;3456;42.136;24.736;2023-01-28T08:23:14;65915.50;;;7.69;100.00
6837;BME280;3456;42.136;24.736;2023-01-28T08:25:43;66840.44;;;7.82;100.00
6837;BME280;3456;42.136;24.736;2023-01-28T08:28:13;68051.13;;;7.91;100.00
6837;BME280;3456;42.136;24.736;2023-01-28T08:30:45;69490.63;;;7.65;100.00
6837;BME280;3456;42.136;24.736;2023-01-28T08:33:15;70279.97;;;7.72;100.00
6837;BME280;3456;42.136;24.736;2023-01-28T08:35:45;71453.63;;;7.58;100.00
6837;BME280;3456;42.136;24.736;2023-01-28T08:38:14;72334.38;;;7.96;100.00
6837;BME280;3456;42.136;24.736;2023-01-28T08:40:44;73416.94;;;8.12;100.00
6837;BME280;3456;42.136;24.736;2023-01-28T08:43:15;74368.34;;;8.18;100.00
6837;BME280;3456;42.136;24.736;2023-01-28T08:45:46;75280.63;;;8.24;100.00
6837;BME280;3456;42.136;24.736;2023-01-28T08:48:17;76294.38;;;8.15;100.00
6837;BME280;3456;42.136;24.736;2023-01-28T08:50:46;76954.50;;;8.00;100.00
6837;BME280;3456;42.136;24.736;2023-01-28T08:53:16;77171.34;;;8.09;100.00
6837;BME280;3456;42.136;24.736;2023-01-28T08:55:46;78990.06;;;7.79;100.00
6837;BME280;3456;42.136;24.736;2023-01-28T08:58:16;80912.38;;;6.68;100.00
6837;BME280;3456;42.136;24.736;2023-01-28T09:00:48;80204.09;;;6.92;100.00
6837;BME280;3456;42.136;24.736;2023-01-28T09:03:17;80609.72;;;6.91;100.00
6837;BME280;3456;42.136;24.736;2023-01-28T09:05:46;80884.06;;;7.07;100.00
6837;BME280;3456;42.136;24.736;2023-01-28T09:08:15;81836.84;;;6.71;100.00
6837;BME280;3456;42.136;24.736;2023-01-28T09:10:44;82188.28;;;6.72;100.00
6837;BME280;3456;42.136;24.736;2023-01-28T09:13:14;82305.88;;;6.80;100.00
6837;BME280;3456;42.136;24.736;2023-01-28T09:15:43;82150.69;;;6.84;100.00
6837;BME280;3456;42.136;24.736;2023-01-28T09:18:15;82708.56;;;6.80;100.00
6837;BME280;3456;42.136;24.736;2023-01-28T09:20:44;82300.75;;;6.98;100.00
6837;BME280;3456;42.136;24.736;2023-01-28T09:23:13;82565.59;;;7.06;100.00
6837;BME280;3456;42.136;24.736;2023-01-28T09:25:42;82737.81;;;7.03;100.00
6837;BME280;3456;42.136;24.736;2023-01-28T09:28:10;83508.28;;;6.81;100.00
6837;BME280;3456;42.136;24.736;2023-01-28T09:30:39;83094.00;;;6.98;100.00
6837;BME280;3456;42.136;24.736;2023-01-28T09:33:08;83214.66;;;7.13;100.00
6837;BME280;3456;42.136;24.736;2023-01-28T09:35:39;84488.28;;;6.93;100.00
6837;BME280;3456;42.136;24.736;2023-01-28T09:38:08;84839.34;;;6.63;100.00
6837;BME280;3456;42.136;24.736;2023-01-28T09:40:40;85819.25;;;6.57;100.00
6837;BME280;3456;42.136;24.736;2023-01-28T09:43:40;85727.78;;;6.72;100.00
6837;BME280;3456;42.136;24.736;2023-01-28T09:46:13;86058.28;;;6.06;100.00
6837;BME280;3456;42.136;24.736;2023-01-28T09:48:45;86125.34;;;6.37;100.00
6837;BME280;3456;42.136;24.736;2023-01-28T09:51:28;85365.47;;;6.59;100.00
6837;BME280;3456;42.136;24.736;2023-01-28T09:54:02;84771.50;;;7.16;100.00
6837;BME280;3456;42.136;24.736;2023-01-28T09:56:42;85149.91;;;6.66;100.00
6837;BME280;3456;42.136;24.736;2023-01-28T09:59:17;85224.31;;;7.10;100.00
6837;BME280;3456;42.136;24.736;2023-01-28T10:01:52;85040.44;;;7.30;100.00
6837;BME280;3456;42.136;24.736;2023-01-28T10:04:34;84691.25;;;7.49;100.00
6837;BME280;3456;42.136;24.736;2023-01-28T10:07:20;84616.81;;;7.64;100.00
6837;BME280;3456;42.136;24.736;2023-01-28T10:09:58;84964.81;;;7.71;100.00
6837;BME280;3456;42.136;24.736;2023-01-28T10:12:40;84980.41;;;7.71;100.00
6837;BME280;3456;42.136;24.736;2023-01-28T10:15:28;85499.38;;;7.65;100.00
6837;BME280;3456;42.136;24.736;2023-01-28T10:20:34;86484.97;;;7.37;100.00
6837;BME280;3456;42.136;24.736;2023-01-28T10:23:13;86463.31;;;7.50;100.00
6837;BME280;3456;42.136;24.736;2023-01-28T10:25:46;86824.31;;;7.52;100.00
6837;BME280;3456;42.136;24.736;2023-01-28T10:28:27;87823.66;;;7.30;100.00
6837;BME280;3456;42.136;24.736;2023-01-28T10:30:57;88079.22;;;6.92;100.00
6837;BME280;3456;42.136;24.736;2023-01-28T10:35:57;88573.66;;;7.05;100.00
6837;BME280;3456;42.136;24.736;2023-01-28T10:38:30;88936.03;;;6.80;100.00
6837;BME280;3456;42.136;24.736;2023-01-28T10:41:01;89190.06;;;6.83;100.00
6837;BME280;3456;42.136;24.736;2023-01-28T10:43:32;88709.94;;;6.92;100.00
6837;BME280;3456;42.136;24.736;2023-01-28T10:46:04;88821.06;;;6.83;100.00
6837;BME280;3456;42.136;24.736;2023-01-28T10:48:41;87871.78;;;7.20;100.00
6837;BME280;3456;42.136;24.736;2023-01-28T10:51:14;87909.84;;;7.32;100.00
6837;BME280;3456;42.136;24.736;2023-01-28T10:53:47;87706.31;;;7.31;100.00
6837;BME280;3456;42.136;24.736;2023-01-28T10:56:26;88110.41;;;7.30;100.00
6837;BME280;3456;42.136;24.736;2023-01-28T10:59:00;87543.16;;;7.18;100.00
6837;BME280;3456;42.136;24.736;2023-01-28T11:01:48;88319.19;;;7.15;100.00
6837;BME280;3456;42.136;24.736;2023-01-28T11:04:22;88591.50;;;6.79;100.00
6837;BME280;3456;42.136;24.736;2023-01-28T11:06:56;88367.75;;;6.80;100.00
6837;BME280;3456;42.136;24.736;2023-01-28T11:09:29;88404.47;;;7.10;100.00
6837;BME280;3456;42.136;24.736;2023-01-28T11:12:16;88145.50;;;7.21;100.00
6837;BME280;3456;42.136;24.736;2023-01-28T11:14:51;88210.22;;;6.57;100.00
6837;BME280;3456;42.136;24.736;2023-01-28T11:17:22;88278.78;;;7.37;100.00
6837;BME280;3456;42.136;24.736;2023-01-28T11:19:53;88961.88;;;7.21;100.00
6837;BME280;3456;42.136;24.736;2023-01-28T11:22:27;88591.34;;;7.27;100.00
6837;BME280;3456;42.136;24.736;2023-01-28T11:25:01;88796.94;;;7.34;100.00
6837;BME280;3456;42.136;24.736;2023-01-28T11:27:31;89226.66;;;7.19;100.00
6837;BME280;3456;42.136;24.736;2023-01-28T11:30:01;89753.34;;;7.08;100.00
6837;BME280;3456;42.136;24.736;2023-01-28T11:32:32;89112.88;;;7.16;100.00
6837;BME280;3456;42.136;24.736;2023-01-28T11:35:01;88806.94;;;7.32;100.00
6837;BME280;3456;42.136;24.736;2023-01-28T11:37:30;88390.78;;;7.44;100.00
6837;BME280;3456;42.136;24.736;2023-01-28T11:40:14;88000.69;;;7.70;100.00
6837;BME280;3456;42.136;24.736;2023-01-28T11:42:46;88160.88;;;7.71;100.00
6837;BME280;3456;42.136;24.736;2023-01-28T11:45:16;88626.28;;;7.57;100.00
6837;BME280;3456;42.136;24.736;2023-01-28T11:47:59;88844.19;;;7.60;100.00
6837;BME280;3456;42.136;24.736;2023-01-28T11:50:37;88942.34;;;7.03;100.00
6837;BME280;3456;42.136;24.736;2023-01-28T11:53:34;89136.59;;;7.47;100.00
6837;BME280;3456;42.136;24.736;2023-01-28T11:56:34;89288.50;;;7.34;100.00
6837;BME280;3456;42.136;24.736;2023-01-28T12:02:08;90208.03;;;7.01;100.00
6837;BME280;3456;42.136;24.736;2023-01-28T12:04:54;90788.75;;;6.78;100.00
6837;BME280;3456;42.136;24.736;2023-01-28T12:07:37;91200.06;;;6.80;100.00
6837;BME280;3456;42.136;24.736;2023-01-28T12:10:19;90544.06;;;6.98;100.00
6837;BME280;3456;42.136;24.736;2023-01-28T12:15:58;90803.13;;;6.70;100.00
6837;BME280;3456;42.136;24.736;2023-01-28T12:18:46;91181.06;;;6.79;100.00
6837;BME280;3456;42.136;24.736;2023-01-28T12:21:31;91164.66;;;6.79;100.00
6837;BME280;3456;42.136;24.736;2023-01-28T12:24:18;91045.69;;;6.66;100.00
6837;BME280;3456;42.136;24.736;2023-01-28T12:26:54;91155.34;;;6.73;100.00
6837;BME280;3456;42.136;24.736;2023-01-28T12:29:33;92175.53;;;6.40;100.00
6837;BME280;3456;42.136;24.736;2023-01-28T12:32:14;91712.94;;;6.03;100.00
6837;BME280;3456;42.136;24.736;2023-01-28T12:38:06;91766.09;;;6.28;100.00
6837;BME280;3456;42.136;24.736;2023-01-28T12:40:46;92082.16;;;6.34;100.00
6837;BME280;3456;42.136;24.736;2023-01-28T12:45:56;92272.44;;;6.03;100.00
6837;BME280;3456;42.136;24.736;2023-01-28T12:48:35;92990.34;;;5.96;100.00
6837;BME280;3456;42.136;24.736;2023-01-28T12:53:41;91660.69;;;5.63;100.00
6837;BME280;3456;42.136;24.736;2023-01-28T12:56:18;92273.66;;;5.55;100.00
6837;BME280;3456;42.136;24.736;2023-01-28T12:59:03;92535.28;;;5.88;100.00
6837;BME280;3456;42.136;24.736;2023-01-28T13:01:40;92301.22;;;5.84;100.00
6837;BME280;3456;42.136;24.736;2023-01-28T13:04:16;93096.72;;;5.67;100.00
6837;BME280;3456;42.136;24.736;2023-01-28T13:06:51;93306.97;;;4.98;100.00
6837;BME280;3456;42.136;24.736;2023-01-28T13:09:24;92109.97;;;5.78;100.00
6837;BME280;3456;42.136;24.736;2023-01-28T13:11:57;91747.88;;;5.59;100.00
6837;BME280;3456;42.136;24.736;2023-01-28T13:14:31;91721.09;;;5.85;100.00
6837;BME280;3456;42.136;24.736;2023-01-28T13:17:24;91142.63;;;5.87;100.00
6837;BME280;3456;42.136;24.736;2023-01-28T13:19:53;91840.16;;;5.50;100.00
6837;BME280;3456;42.136;24.736;2023-01-28T13:22:27;91624.97;;;5.80;100.00
6837;BME280;3456;42.136;24.736;2023-01-28T13:25:10;91992.03;;;5.74;100.00
6837;BME280;3456;42.136;24.736;2023-01-28T13:27:40;91481.22;;;5.91;100.00
6837;BME280;3456;42.136;24.736;2023-01-28T13:30:23;91764.00;;;5.66;100.00
6837;BME280;3456;42.136;24.736;2023-01-28T13:33:00;92177.53;;;5.67;100.00
6837;BME280;3456;42.136;24.736;2023-01-28T13:35:31;92640.69;;;5.43;100.00
6837;BME280;3456;42.136;24.736;2023-01-28T13:38:12;92320.66;;;5.70;100.00
6837;BME280;3456;42.136;24.736;2023-01-28T13:40:51;92167.66;;;5.19;100.00
6837;BME280;3456;42.136;24.736;2023-01-28T13:43:27;92294.03;;;5.47;100.00
6837;BME280;3456;42.136;24.736;2023-01-28T13:46:06;91650.84;;;5.70;100.00
6837;BME280;3456;42.136;24.736;2023-01-28T13:48:45;92219.94;;;5.11;100.00
6837;BME280;3456;42.136;24.736;2023-01-28T13:51:19;92614.59;;;5.26;100.00
6837;BME280;3456;42.136;24.736;2023-01-28T13:53:55;92644.69;;;5.16;100.00
6837;BME280;3456;42.136;24.736;2023-01-28T13:56:40;93206.44;;;4.87;100.00
6837;BME280;3456;42.136;24.736;2023-01-28T13:59:31;92439.50;;;4.94;100.00
6837;BME280;3456;42.136;24.736;2023-01-28T14:08:27;90956.19;;;4.96;100.00
6837;BME280;3456;42.136;24.736;2023-01-28T14:11:13;90840.88;;;4.88;100.00
6837;BME280;3456;42.136;24.736;2023-01-28T14:16:43;91222.97;;;4.92;100.00
6837;BME280;3456;42.136;24.736;2023-01-28T14:19:20;90921.22;;;4.73;100.00